Cherryvale, KS

1:03 PM CDT on August 30, 2015 (GMT -0500)
Tri-City | | Change Station
CLOSE
Current Station
Airport
Location: Parsons,
Elevation: 899 ft
Nearby Weather Stations

Elev 899 ft 37.33 °N, 95.50 °W | Updated 11 minutes ago

Partly Cloudy
Partly Cloudy
80 °F
Feels Like 84 °F
N
5
Wind Variable Wind from North

Today
High -- | Low -- °F
--% Chance of Precip.
Yesterday
High -- | Low -- °F
Precip. -- in
6:50 AM 7:54 PM
Full, 99% visible
Pressure 30.00 in
Visibility 10.0 miles
Clouds Mostly Cloudy 1900 ft
Mostly Cloudy 2900 ft
Overcast 3700 ft
Heat Index 84 °F
Dew Point 71 °F
Humidity 74%
Rainfall 0.00 in
Snow Depth Not available.
UV 3 out of 12
Pollen 9.30 out of 12
Air Quality Not available.
Flu Activity Not available.
METAR KPPF 301752Z AUTO 36004KT 10SM BKN019 BKN029 OVC037 27/22 A3003 RMK AO2 SLP159 T02670217 10272 20194 58005
Pressure 30.00 in
Visibility 10.0 miles
Clouds Mostly Cloudy 1900 ft
Mostly Cloudy 2900 ft
Overcast 3700 ft
Heat Index 84 °F
Dew Point 71 °F
Humidity 74%
Rainfall 0.00 in
Snow Depth Not available.
UV 3 out of 12
Pollen 9.30 out of 12
Air Quality Not available.
Flu Activity Not available.
METAR KPPF 301752Z AUTO 36004KT 10SM BKN019 BKN029 OVC037 27/22 A3003 RMK AO2 SLP159 T02670217 10272 20194 58005

10-Day Weather Forecast

×

Almanac

Astronomy

Aug. 30, 2015 Rise Set
Actual Time
Civil Twilight
Nautical Twilight
Astronomical Twilight
Moon
Length of Visible Light
Length of Day
Tomorrow will be .
, % of the Moon is Illuminated

Today's Extremes

State Highs State Lows

Community

WunderPhotos

Upload Photos

1,851,021 photos uploaded!

WunderBlogs® & News

Nearby

Air Quality

  Air Quality AQ Index Pollutant
Not available.

Snow Depth

Station Depth Elevation

Earthquake Activity

City Distance Mag. Time & Date
Minimum magnitude displayed is 2.5.

Coastal Water Temperatures

Place Temperature

Stations

Nearby Weather Stations

Station Location Temp. Windchill Dew Point Humidity Wind Precip. Elev Updated Type